Latest Weather Observations for Forrest

IDW60801

Issued at 11:05 pm WST Friday 24 October 2014 (issued every 30 minutes, with the page automatically refreshed every 10 minutes)

About weather observations | Map of weather stations | Latest weather observations for WA | Other Formats
Station Details ID: 011052 Name: FORREST Lat: -30.85 Lon: 128.11 Height: 159.0 m
Data from the previous 72 hours. | See also: Recent months at Forrest
Date/Time
WST
Temp
°C
App
Temp
°C
Dew
Point
Rel
Hum
%
Delta-T
°C
Wind Press
QNH
hPa
Press
MSL
hPa
Rain
since 9 am
mm
Dir
 
Spd
km/h
Gust
km/h
Spd
kts
Gust
kts
24/11:00pm 15.8 13.8 13.8 88 1.1 ESE 17 20 9 11 1018.1 - 0.0
24/10:30pm 16.0 13.6 13.8 87 1.2 SE 19 26 10 14 1018.3 - 0.0
24/10:00pm 16.3 13.8 14.0 86 1.3 ESE 20 26 11 14 1018.4 - 0.0
24/09:30pm 16.6 14.0 13.9 84 1.5 SE 20 28 11 15 1018.5 - 0.0
24/09:00pm 17.1 14.1 13.8 81 1.9 SE 22 30 12 16 1018.7 1018.4 0.0
24/08:30pm 17.6 14.6 13.7 78 2.2 SE 22 32 12 17 1018.4 - 0.0
24/08:00pm 18.5 14.4 13.8 74 2.7 SE 28 35 15 19 1017.7 - 0.0
24/07:30pm 19.5 15.3 13.4 68 3.5 SE 28 39 15 21 1017.3 - 0.0
24/07:00pm 20.7 16.4 13.2 62 4.3 SE 28 39 15 21 1016.9 - 0.0
24/06:30pm 22.0 17.6 12.8 56 5.3 SE 28 39 15 21 1016.4 - 0.0
24/06:00pm 23.7 18.4 12.4 49 6.5 SE 32 41 17 22 1015.9 1015.6 0.0
24/05:30pm 25.7 20.9 11.8 42 8.0 SE 28 41 15 22 1015.4 - 0.0
24/05:00pm 27.5 22.3 11.5 37 9.2 SE 30 43 16 23 1014.9 - 0.0
24/04:30pm 29.3 23.0 10.9 32 10.6 SE 35 48 19 26 1014.4 - 0.0
24/04:20pm 30.4 23.4 9.8 28 11.7 SE 37 44 20 24 1014.2 - 0.0
24/04:00pm 31.6 28.2 5.9 20 13.8 S 13 20 7 11 1014.3 - 0.0
24/03:30pm 31.6 29.0 5.9 20 13.8 W 9 28 5 15 1014.4 - 0.0
24/03:00pm 31.9 27.8 6.2 20 13.9 S 17 26 9 14 1014.4 1014.1 0.0
24/02:30pm 32.0 28.1 5.5 19 14.2 S 15 20 8 11 1014.5 - 0.0
24/02:00pm 31.6 27.3 5.2 19 14.0 S 17 28 9 15 1014.5 - 0.0
24/01:30pm 31.4 27.6 5.8 20 13.7 S 15 26 8 14 1014.7 - 0.0
24/01:00pm 31.9 28.6 6.2 20 13.9 ESE 13 20 7 11 1014.9 - 0.0
24/12:30pm 31.2 28.6 7.6 23 13.0 NE 11 22 6 12 1015.3 - 0.0
24/12:00pm 30.4 27.2 7.0 23 12.7 S 13 24 7 13 1015.5 1015.2 0.0
24/11:30am 30.0 26.3 7.8 25 12.2 ESE 17 28 9 15 1015.7 - 0.0
24/11:00am 29.8 26.5 8.2 26 11.9 SSE 15 28 8 15 1016.0 - 0.0
24/10:30am 29.3 25.7 8.4 27 11.5 SSE 17 26 9 14 1016.3 - 0.0
24/10:00am 27.7 23.7 8.1 29 10.7 SE 19 28 10 15 1016.6 - 0.0
24/09:30am 27.2 23.3 8.6 31 10.2 ESE 19 30 10 16 1016.8 - 0.0
24/09:00am 26.5 22.0 8.5 32 9.8 SSE 22 32 12 17 1017.2 1017.0 0.0
24/08:30am 26.4 21.7 9.3 34 9.4 S 24 32 13 17 1017.3 - 0.0
24/08:00am 24.9 20.5 8.8 36 8.8 SSE 22 33 12 18 1017.2 - 0.0
24/07:30am 23.9 18.8 9.1 39 8.0 SSE 26 35 14 19 1017.1 - 0.0
24/07:00am 22.3 18.4 9.5 44 6.9 SSE 20 28 11 15 1017.1 - 0.0
24/06:30am 19.9 16.9 10.6 55 5.1 SSE 17 24 9 13 1016.9 - 0.0
24/06:00am 17.7 15.4 11.7 68 3.3 S 15 20 8 11 1016.6 1016.4 0.0
24/05:30am 15.5 13.0 11.1 75 2.4 SSW 15 19 8 10 1016.2 - 0.0
24/05:00am 14.6 12.3 10.4 76 2.2 SSW 13 15 7 8 1015.8 - 0.0
24/04:30am 15.5 13.3 10.7 73 2.6 S 13 20 7 11 1015.4 - 0.0
24/04:00am 15.7 13.5 10.9 73 2.6 S 13 17 7 9 1015.0 - 0.0
24/03:30am 16.5 14.0 11.2 71 2.9 S 15 17 8 9 1014.6 - 0.0
24/03:00am 17.0 14.3 11.7 71 2.9 S 17 24 9 13 1014.1 1013.8 0.0
24/02:30am 17.5 14.3 11.8 69 3.1 S 20 28 11 15 1013.9 - 0.0
24/02:00am 17.8 14.6 12.0 69 3.2 S 20 26 11 14 1013.8 - 0.0
24/01:30am 18.4 15.2 11.9 66 3.6 S 20 30 11 16 1013.6 - 0.0
24/01:00am 19.1 15.4 11.4 61 4.3 S 22 30 12 16 1013.5 - 0.0
24/12:30am 19.7 15.6 11.5 59 4.5 S 24 35 13 19 1013.2 - 0.0
24/12:00am 20.2 15.4 11.7 58 4.7 S 28 37 15 20 1013.5 1013.2 0.0
 
Date/Time
WST
Temp
°C
App
Temp
°C
Dew
Point
Rel
Hum
%
Delta-T
°C
Wind Press
QNH
hPa
Press
MSL
hPa
Rain
since 9 am
mm
Dir
 
Spd
km/h
Gust
km/h
Spd
kts
Gust
kts
23/11:30pm 20.8 16.2 10.9 53 5.5 SSW 26 32 14 17 1013.8 - 0.0
23/11:00pm 21.7 15.9 10.8 50 6.0 SSW 32 43 17 23 1013.5 - 0.0
23/10:34pm 25.4 19.6 8.0 33 9.4 WSW 28 48 15 26 1012.4 - 0.0
23/10:30pm 21.6 16.3 6.7 38 7.6 WSW 24 35 13 19 1012.5 - 0.0
23/10:00pm 21.4 17.4 6.5 38 7.6 N 17 19 9 10 1011.6 - 0.0
23/09:30pm 21.4 17.7 6.5 38 7.6 N 15 19 8 10 1011.8 - 0.0
23/09:00pm 22.3 18.6 6.1 35 8.3 N 15 17 8 9 1012.1 1011.8 0.0
23/08:30pm 23.5 19.0 6.3 33 8.9 N 19 20 10 11 1012.2 - 0.0
23/08:00pm 24.6 20.0 6.4 31 9.5 N 20 24 11 13 1012.0 - 0.0
23/07:30pm 24.5 20.6 7.2 33 9.1 N 17 20 9 11 1011.8 - 0.0
23/07:00pm 24.8 20.9 7.0 32 9.4 N 17 19 9 10 1011.4 - 0.0
23/06:30pm 25.4 21.6 7.5 32 9.5 NNE 17 19 9 10 1011.1 - 0.0
23/06:00pm 27.2 23.7 7.1 28 10.8 NNE 15 17 8 9 1010.7 1010.4 0.0
23/05:30pm 29.2 25.8 7.7 26 11.7 NNE 15 17 8 9 1010.7 - 0.0
23/05:00pm 30.0 26.6 7.8 25 12.2 NE 15 19 8 10 1010.6 - 0.0
23/04:30pm 30.6 25.4 7.1 23 12.8 NNE 24 30 13 16 1010.5 - 0.0
23/04:00pm 31.2 25.3 7.6 23 13.0 NNE 28 35 15 19 1010.6 - 0.0
23/03:30pm 31.9 26.4 7.5 22 13.5 NNE 26 33 14 18 1010.7 - 0.0
23/03:00pm 32.2 27.5 7.8 22 13.6 N 22 32 12 17 1010.8 1010.5 0.0
23/02:30pm 31.5 27.2 7.9 23 13.1 N 20 26 11 14 1010.8 - 0.0
23/02:00pm 31.6 27.1 8.6 24 12.9 N 22 32 12 17 1011.2 - 0.0
23/01:30pm 29.8 27.0 9.9 29 11.3 NNE 15 20 8 11 1011.4 - 0.0
23/01:00pm 26.8 24.7 12.4 40 8.4 N 15 17 8 9 1013.0 - 0.0
23/12:30pm 25.7 25.1 12.2 43 7.8 NNE 7 13 4 7 1013.2 - 0.0
23/12:00pm 24.6 22.7 12.9 48 6.8 NE 15 19 8 10 1013.2 1012.9 0.0
23/11:30am 23.0 22.1 13.8 56 5.4 E 11 15 6 8 1013.7 - 0.0
23/11:00am 22.3 21.5 13.9 59 4.9 SE 11 15 6 8 1014.1 - 0.0
23/10:30am 20.5 19.2 13.7 65 3.9 NE 13 15 7 8 1015.3 - 0.0
23/10:00am 20.1 17.3 13.1 64 4.0 NNE 20 28 11 15 1015.8 - 0.0
23/09:30am 18.9 16.3 13.1 69 3.3 NE 19 22 10 12 1015.5 - 0.0
23/09:00am 17.4 14.5 12.9 75 2.5 ENE 20 26 11 14 1015.5 1015.2 0.0
23/08:30am 16.5 12.9 13.0 80 2.0 NE 24 30 13 16 1016.0 - 0.0
23/08:00am 15.9 12.7 13.2 84 1.5 NE 22 30 12 16 1016.9 - 0.0
23/07:30am 15.9 12.4 12.1 78 2.1 N 22 28 12 15 1018.1 - 0.0
23/07:00am 15.5 13.3 12.1 80 1.9 N 15 22 8 12 1018.3 - 0.0
23/06:30am 15.1 12.2 12.2 83 1.6 N 19 26 10 14 1018.1 - 0.0
23/06:00am 14.5 10.9 12.0 85 1.4 N 22 28 12 15 1017.6 1017.4 0.0
23/05:53am 14.4 11.3 12.1 86 1.3 N 20 24 11 13 1018.3 - 0.0
23/05:30am 14.1 10.5 12.0 87 1.1 ENE 22 30 12 16 1016.1 - 0.0
23/05:00am 13.9 9.2 11.9 88 1.1 ENE 28 33 15 18 1015.2 - 0.0
23/04:30am 13.8 10.8 12.0 89 1.0 NE 19 22 10 12 1016.4 - 0.0
23/04:00am 13.5 9.9 11.7 89 1.0 ENE 22 28 12 15 1015.5 - 0.0
23/03:30am 13.4 10.4 11.8 90 0.9 E 19 22 10 12 1015.7 - 0.0
23/03:00am 13.5 10.3 11.9 90 0.9 E 20 26 11 14 1015.5 1015.2 0.0
23/02:30am 13.6 10.0 11.8 89 1.0 E 22 28 12 15 1016.0 - 0.0
23/02:00am 14.1 9.8 12.1 88 1.1 E 26 32 14 17 1016.5 - 0.0
23/01:30am 14.1 11.1 12.1 88 1.1 E 19 24 10 13 1016.8 - 0.0
23/01:00am 14.0 9.7 12.0 88 1.1 E 26 33 14 18 1016.8 - 0.0
23/12:30am 14.0 11.0 11.9 87 1.1 ESE 19 24 10 13 1017.3 - 0.0
23/12:00am 14.2 11.0 11.9 86 1.2 E 20 26 11 14 1017.7 1017.5 0.0
 
Date/Time
WST
Temp
°C
App
Temp
°C
Dew
Point
Rel
Hum
%
Delta-T
°C
Wind Press
QNH
hPa
Press
MSL
hPa
Rain
since 9 am
mm
Dir
 
Spd
km/h
Gust
km/h
Spd
kts
Gust
kts
22/11:30pm 14.4 11.4 11.9 85 1.4 ESE 19 22 10 12 1018.5 - 0.0
22/11:00pm 14.8 11.6 11.9 83 1.6 ESE 20 28 11 15 1018.9 - 0.0
22/10:30pm 15.0 12.0 12.0 82 1.6 ESE 19 26 10 14 1019.5 - 0.0
22/10:00pm 15.2 12.2 12.0 81 1.7 ESE 19 26 10 14 1019.7 - 0.0
22/09:30pm 15.5 12.0 12.1 80 1.9 ESE 22 28 12 15 1019.8 - 0.0
22/09:00pm 15.8 12.8 12.0 78 2.1 ESE 19 26 10 14 1020.0 1019.7 0.0
22/08:30pm 16.2 11.9 12.2 77 2.2 ESE 26 35 14 19 1019.9 - 0.0
22/08:00pm 16.6 12.3 12.2 75 2.4 ESE 26 35 14 19 1020.0 - 0.0
22/07:30pm 17.1 12.5 12.2 73 2.7 ESE 28 37 15 20 1020.2 - 0.0
22/07:00pm 17.9 13.0 12.4 70 3.1 SE 30 39 16 21 1020.1 - 0.0
22/06:30pm 18.9 14.0 12.4 66 3.7 SE 30 39 16 21 1019.8 - 0.0
22/06:00pm 20.3 15.3 12.3 60 4.5 SE 30 39 16 21 1019.4 1019.1 0.0
22/05:30pm 22.4 16.8 12.1 52 5.9 SE 33 44 18 24 1018.7 - 0.0
22/05:00pm 24.9 18.8 11.8 44 7.5 SE 35 43 19 23 1018.7 - 0.0
22/04:30pm 27.0 22.3 10.7 36 9.3 SE 26 35 14 19 1018.6 - 0.0
22/04:00pm 28.3 25.4 9.6 31 10.5 SE 15 24 8 13 1018.6 - 0.0
22/03:30pm 28.2 24.8 9.0 30 10.7 ESE 17 24 9 13 1018.8 - 0.0
22/03:00pm 28.3 26.0 9.1 30 10.7 SE 11 20 6 11 1018.9 1018.6 0.0
22/02:30pm 28.5 25.5 9.2 30 10.8 ESE 15 20 8 11 1019.0 - 0.0
22/02:00pm 28.6 26.9 9.8 31 10.6 ENE 9 15 5 8 1019.4 - 0.0
22/01:30pm 27.5 25.1 10.2 34 9.8 ENE 13 28 7 15 1020.0 - 0.0
22/01:00pm 27.0 24.4 10.7 36 9.3 E 15 24 8 13 1020.5 - 0.0
22/12:30pm 27.1 25.4 11.2 37 9.1 E 11 26 6 14 1021.0 - 0.0
22/12:00pm 26.0 23.6 11.4 40 8.3 E 15 28 8 15 1021.3 1021.0 0.0
22/11:30am 25.2 21.8 11.4 42 7.9 ESE 20 28 11 15 1021.7 - 0.0
22/11:00am 25.2 23.1 12.4 45 7.4 E 15 26 8 14 1022.2 - 0.0
22/10:30am 23.5 21.1 12.8 51 6.2 ESE 17 26 9 14 1022.7 - 0.0
22/10:00am 21.9 20.3 12.7 56 5.3 ESE 13 24 7 13 1023.2 - 0.0
22/09:30am 21.2 18.9 13.1 60 4.7 ESE 17 28 9 15 1023.4 - 0.0
22/09:00am 20.4 18.2 13.4 64 4.0 ESE 17 28 9 15 1023.6 1023.4 0.0
22/08:30am 19.4 16.6 13.1 67 3.6 E 20 30 11 16 1023.7 - 0.0
22/08:00am 18.7 15.9 13.3 71 3.1 ESE 20 28 11 15 1023.8 - 0.0
22/07:30am 18.6 15.9 13.5 72 2.9 ESE 20 28 11 15 1023.9 - 0.0
22/07:00am 16.5 13.3 13.0 80 2.0 ESE 22 30 12 16 1023.8 - 0.0
22/06:30am 16.4 13.3 13.3 82 1.7 SE 22 28 12 15 1023.5 - 0.0
22/06:00am 15.2 12.7 13.6 90 0.9 SE 19 24 10 13 1023.5 1023.3 0.0
22/05:30am 14.7 12.6 13.6 93 0.6 SE 17 22 9 12 1023.3 - 0.0
22/05:00am 14.5 13.2 13.7 95 0.5 SSE 13 20 7 11 1022.9 - 0.0
22/04:30am 14.1 12.3 13.3 95 0.4 SE 15 19 8 10 1022.6 - 0.0
22/04:00am 14.1 13.1 13.3 95 0.4 SSE 11 17 6 9 1022.3 - 0.0
22/03:30am 14.0 12.6 13.4 96 0.3 SSE 13 19 7 10 1022.1 - 0.0
22/03:00am 14.0 12.3 13.5 97 0.3 SSE 15 19 8 10 1021.9 1021.7 0.0
22/02:30am 13.8 12.8 13.3 97 0.3 SSE 11 17 6 9 1021.9 - 0.0
22/02:00am 13.4 12.6 12.9 97 0.3 S 9 13 5 7 1021.9 - 0.0
22/01:30am 13.5 12.0 13.0 97 0.3 S 13 17 7 9 1022.0 - 0.0
22/01:00am 13.4 11.7 12.3 93 0.6 SSW 13 15 7 8 1022.0 - 0.0
22/12:30am 13.8 12.5 12.4 91 0.8 SSW 11 13 6 7 1022.0 - 0.0
22/12:00am 14.3 13.0 12.5 89 1.0 S 11 13 6 7 1021.9 1021.7 0.0
 
Date/Time
WST
Temp
°C
App
Temp
°C
Dew
Point
Rel
Hum
%
Delta-T
°C
Wind Press
QNH
hPa
Press
MSL
hPa
Rain
since 9 am
mm
Dir
 
Spd
km/h
Gust
km/h
Spd
kts
Gust
kts
21/11:30pm 14.8 13.6 12.8 88 1.1 S 11 15 6 8 1022.2 - 0.0

Other Formats:

Comma delimited format used in spreadsheet applications
http://www.bom.gov.au/fwo/IDW60801/IDW60801.95646.axf

JavaScript Object Notation format (JSON) in row-major order
http://www.bom.gov.au/fwo/IDW60801/IDW60801.95646.json